Terminal Aerodrome Forecast
Issued by NWS Wilmington, NC

Home | Current Version | Previous Version | Text Only | Print | Product List | Glossary On
Versions: 1 2 3 4 5 6 7 8 9 10 11 12 13 14 15 16 17
000
FTUS42 KILM 291723
TAFFLO
TAF
KFLO 291723Z 2918/3018 14007KT P6SM SCT025 SCT050
     FM300000 09003KT P6SM SCT080
     FM300700 VRB02KT 6SM BR BKN020
     FM301000 VRB02KT 2SM BR BKN009
     FM301400 12006KT P6SM SCT020 BKN035=

USA.gov is the U.S. government's official web portal to all federal, state and local government web resources and services.